Time;durP1;ratioP1;P1;durP2;ratioP2;P2;SDS_P1;SDS_P2;PMS_P1;PMS_P2;Temp;Humidity;BMP_temperature;BMP_pressure;BME280_temperature;BME280_humidity;BME280_pressure;Samples;Min_cycle;Max_cycle;Signal;HPM_P1;HPM_P2
2021/06/01 00:01:54;;;;;;;7.80;5.82;;;;;;;;;;4421877;32;20417;-69
2021/06/01 00:04:19;;;;;;;8.52;5.72;;;;;;;;;;4421170;32;20130;-69
2021/06/01 00:06:45;;;;;;;8.75;5.80;;;;;;;;;;4421105;32;20157;-69
2021/06/01 00:09:12;;;;;;;8.23;5.47;;;;;;;;;;4420508;32;20230;-68
2021/06/01 00:11:37;;;;;;;8.38;5.00;;;;;;;;;;4420504;32;20172;-68
2021/06/01 00:14:03;;;;;;;7.32;5.10;;;;;;;;;;4420106;32;20137;-68
2021/06/01 00:16:29;;;;;;;7.25;5.03;;;;;;;;;;4419410;32;20527;-68
2021/06/01 00:18:54;;;;;;;8.50;5.30;;;;;;;;;;4419006;32;20126;-68
2021/06/01 00:21:19;;;;;;;8.23;4.40;;;;;;;;;;4420870;32;20130;-68
2021/06/01 00:23:45;;;;;;;6.55;4.65;;;;;;;;;;4418926;32;20195;-68
2021/06/01 00:26:11;;;;;;;7.95;4.75;;;;;;;;;;4405168;32;20158;-69
2021/06/01 00:28:37;;;;;;;9.02;4.65;;;;;;;;;;4418856;32;20555;-68
2021/06/01 00:31:02;;;;;;;5.47;4.25;;;;;;;;;;4420304;32;20203;-68
2021/06/01 00:33:28;;;;;;;8.00;4.45;;;;;;;;;;4405025;32;20606;-69
2021/06/01 00:35:53;;;;;;;6.07;3.85;;;;;;;;;;4418794;32;20131;-68
2021/06/01 00:38:18;;;;;;;7.70;4.12;;;;;;;;;;4420275;32;20138;-68
2021/06/01 00:40:44;;;;;;;9.52;4.32;;;;;;;;;;4419641;32;20198;-68
2021/06/01 00:43:09;;;;;;;5.75;4.03;;;;;;;;;;4419850;32;20228;-68
2021/06/01 00:45:34;;;;;;;6.85;3.83;;;;;;;;;;4420273;32;20532;-68
2021/06/01 00:48:00;;;;;;;6.37;3.50;;;;;;;;;;4418737;32;20126;-68
2021/06/01 00:50:26;;;;;;;4.77;3.50;;;;;;;;;;4419039;32;20126;-68
2021/06/01 00:52:51;;;;;;;6.10;3.67;;;;;;;;;;4404405;32;20728;-69
2021/06/01 00:55:16;;;;;;;5.82;3.33;;;;;;;;;;4404579;32;20289;-68
2021/06/01 00:57:42;;;;;;;5.12;3.50;;;;;;;;;;4420301;32;20180;-68
2021/06/01 01:00:24;;;;;;;4.62;3.12;;;;;;;;;;4420387;32;20160;-68
2021/06/01 01:02:50;;;;;;;7.45;3.50;;;;;;;;;;4404760;32;20208;-68
2021/06/01 01:05:17;;;;;;;5.40;3.40;;;;;;;;;;4420223;32;20532;-68
2021/06/01 01:07:46;;;;;;;6.47;3.62;;;;;;;;;;4418750;32;20173;-68
2021/06/01 01:10:13;;;;;;;6.72;3.50;;;;;;;;;;4418755;32;20220;-69
2021/06/01 01:12:50;;;;;;;4.65;3.28;;;;;;;;;;4419577;32;20530;-68
2021/06/01 01:15:16;;;;;;;3.70;2.75;;;;;;;;;;4418865;32;20133;-69
2021/06/01 01:17:44;;;;;;;4.40;3.12;;;;;;;;;;4420580;32;20211;-69
2021/06/01 01:20:16;;;;;;;7.62;3.40;;;;;;;;;;4422730;32;20153;-70
2021/06/01 01:22:42;;;;;;;5.30;3.12;;;;;;;;;;4422828;32;20297;-68
2021/06/01 01:25:16;;;;;;;4.00;2.90;;;;;;;;;;4421431;32;20426;-68
2021/06/01 01:27:51;;;;;;;5.03;3.08;;;;;;;;;;4407719;32;20188;-68
2021/06/01 01:30:17;;;;;;;5.35;3.10;;;;;;;;;;4423127;32;20174;-68
2021/06/01 01:32:53;;;;;;;4.95;3.22;;;;;;;;;;4421168;32;20149;-68
2021/06/01 01:35:19;;;;;;;5.00;3.10;;;;;;;;;;4423096;32;20219;-68
2021/06/01 01:37:46;;;;;;;4.18;3.12;;;;;;;;;;4421982;32;20265;-68
2021/06/01 01:40:12;;;;;;;3.12;2.80;;;;;;;;;;4407613;32;20179;-68
2021/06/01 01:42:42;;;;;;;5.70;3.35;;;;;;;;;;4422990;32;20145;-68
2021/06/01 01:45:13;;;;;;;6.22;2.92;;;;;;;;;;4421922;32;20248;-68
2021/06/01 01:50:13;;;;;;;4.97;2.90;;;;;;;;;;4421571;32;20128;-67
2021/06/01 01:52:39;;;;;;;3.60;2.67;;;;;;;;;;4406199;32;20222;-68
2021/06/01 01:55:08;;;;;;;4.93;3.20;;;;;;;;;;4422260;32;20138;-68
2021/06/01 01:57:34;;;;;;;4.60;3.12;;;;;;;;;;4422981;32;20161;-68
2021/06/01 02:00:00;;;;;;;5.15;3.03;;;;;;;;;;4422851;32;20169;-68
2021/06/01 02:02:25;;;;;;;3.80;2.78;;;;;;;;;;4421909;32;20130;-69
2021/06/01 02:04:50;;;;;;;5.75;2.85;;;;;;;;;;4423610;32;20187;-69
2021/06/01 02:07:16;;;;;;;3.45;2.90;;;;;;;;;;4423276;32;20183;-69
2021/06/01 02:09:41;;;;;;;4.35;2.40;;;;;;;;;;4422832;32;20201;-69
2021/06/01 02:12:06;;;;;;;3.85;2.50;;;;;;;;;;4423911;32;20129;-69
2021/06/01 02:14:31;;;;;;;3.87;2.40;;;;;;;;;;4433866;32;20181;-69
2021/06/01 02:16:58;;;;;;;3.90;2.40;;;;;;;;;;4438176;32;20562;-69
2021/06/01 02:19:23;;;;;;;5.20;2.60;;;;;;;;;;4424801;32;20169;-69
2021/06/01 02:22:20;;;;;;;5.65;2.60;;;;;;;;;;4438316;32;20539;-69
2021/06/01 02:24:49;;;;;;;3.62;2.50;;;;;;;;;;4422887;32;20216;-69
2021/06/01 02:27:19;;;;;;;4.30;2.62;;;;;;;;;;4439022;32;20179;-69
2021/06/01 02:30:03;;;;;;;5.95;3.08;;;;;;;;;;4435879;32;20550;-68
2021/06/01 02:32:34;;;;;;;3.37;2.60;;;;;;;;;;4423302;32;20168;-68
2021/06/01 02:35:00;;;;;;;4.70;2.42;;;;;;;;;;4423364;32;20184;-68
2021/06/01 02:37:26;;;;;;;3.87;2.50;;;;;;;;;;4436701;32;20138;-68
2021/06/01 02:39:53;;;;;;;4.62;2.28;;;;;;;;;;4437873;32;20228;-68
2021/06/01 02:42:18;;;;;;;6.10;2.78;;;;;;;;;;4422255;32;20641;-69
2021/06/01 02:44:43;;;;;;;5.28;2.78;;;;;;;;;;4437384;32;20182;-69
2021/06/01 02:47:08;;;;;;;4.05;2.58;;;;;;;;;;4437814;32;20133;-68
2021/06/01 02:49:34;;;;;;;3.47;2.87;;;;;;;;;;4437996;32;20176;-69
2021/06/01 02:52:00;;;;;;;6.12;2.70;;;;;;;;;;4436251;32;20236;-70
2021/06/01 02:54:26;;;;;;;5.07;2.78;;;;;;;;;;4421440;32;20184;-69
2021/06/01 02:56:52;;;;;;;6.78;3.03;;;;;;;;;;4422151;32;20204;-69
2021/06/01 02:59:17;;;;;;;4.12;2.75;;;;;;;;;;4435105;32;20164;-69
2021/06/01 03:01:43;;;;;;;5.78;3.15;;;;;;;;;;4421244;32;20554;-68
2021/06/01 03:04:08;;;;;;;4.82;3.12;;;;;;;;;;4436855;32;20208;-67
2021/06/01 03:06:34;;;;;;;4.53;3.00;;;;;;;;;;4435703;32;20543;-68
2021/06/01 03:08:59;;;;;;;4.05;2.80;;;;;;;;;;4436297;32;20282;-69
2021/06/01 03:11:24;;;;;;;3.72;3.00;;;;;;;;;;4437485;32;20483;-68
2021/06/01 03:13:51;;;;;;;4.18;2.90;;;;;;;;;;4421418;32;20256;-68
2021/06/01 03:16:17;;;;;;;5.37;3.00;;;;;;;;;;4435899;32;20141;-67
2021/06/01 03:18:42;;;;;;;4.20;3.00;;;;;;;;;;4436236;32;20499;-68
2021/06/01 03:21:08;;;;;;;4.78;2.87;;;;;;;;;;4422971;32;20165;-68
2021/06/01 03:23:34;;;;;;;4.55;3.20;;;;;;;;;;4436658;32;20165;-68
2021/06/01 03:25:59;;;;;;;5.18;3.20;;;;;;;;;;4436583;32;20159;-68
2021/06/01 03:28:24;;;;;;;4.28;3.28;;;;;;;;;;4436419;32;20161;-67
2021/06/01 03:30:50;;;;;;;5.53;3.22;;;;;;;;;;4436638;32;20137;-67
2021/06/01 03:33:16;;;;;;;7.00;3.20;;;;;;;;;;4436447;32;20160;-69
2021/06/01 03:35:41;;;;;;;4.60;3.70;;;;;;;;;;4436938;32;20501;-68
2021/06/01 03:38:07;;;;;;;6.00;3.40;;;;;;;;;;4434836;32;20133;-68
2021/06/01 03:40:32;;;;;;;4.57;3.20;;;;;;;;;;4420112;32;20157;-69
2021/06/01 03:42:58;;;;;;;11.85;3.12;;;;;;;;;;4421718;32;20256;-69
2021/06/01 03:45:24;;;;;;;4.97;3.15;;;;;;;;;;4438044;32;20175;-69
2021/06/01 03:47:49;;;;;;;4.70;3.15;;;;;;;;;;4421344;32;20164;-68
2021/06/01 03:50:14;;;;;;;6.35;3.80;;;;;;;;;;4434558;32;20171;-69
2021/06/01 03:52:40;;;;;;;5.68;3.55;;;;;;;;;;4436107;32;20137;-69
2021/06/01 03:55:05;;;;;;;6.25;3.00;;;;;;;;;;4436281;32;20137;-68
2021/06/01 03:57:30;;;;;;;8.95;3.72;;;;;;;;;;4435023;32;20473;-69
2021/06/01 03:59:56;;;;;;;4.30;3.20;;;;;;;;;;4436224;32;20156;-67
2021/06/01 04:02:21;;;;;;;7.95;5.10;;;;;;;;;;4433906;32;20593;-68
2021/06/01 04:04:46;;;;;;;5.95;3.72;;;;;;;;;;4435764;32;20194;-68
2021/06/01 04:07:12;;;;;;;4.68;3.37;;;;;;;;;;4433898;32;20133;-69
2021/06/01 04:09:37;;;;;;;7.18;3.70;;;;;;;;;;4420970;32;20496;-68
2021/06/01 04:12:03;;;;;;;4.50;3.42;;;;;;;;;;4434171;32;20142;-67
2021/06/01 04:14:28;;;;;;;9.02;3.80;;;;;;;;;;4435278;32;20443;-68
2021/06/01 04:16:58;;;;;;;4.40;3.20;;;;;;;;;;4435616;32;20611;-68
2021/06/01 04:19:23;;;;;;;6.20;3.30;;;;;;;;;;4435354;32;20433;-68
2021/06/01 04:21:49;;;;;;;8.60;3.67;;;;;;;;;;4434305;32;20186;-68
2021/06/01 04:24:14;;;;;;;5.53;3.70;;;;;;;;;;4440029;32;20643;-69
2021/06/01 04:26:39;;;;;;;5.43;3.62;;;;;;;;;;4436485;32;20168;-69
2021/06/01 04:29:04;;;;;;;4.80;3.33;;;;;;;;;;4436214;32;20696;-69
2021/06/01 04:31:30;;;;;;;7.53;4.10;;;;;;;;;;4434957;32;20180;-69
2021/06/01 04:33:55;;;;;;;5.05;3.30;;;;;;;;;;4420684;32;20165;-69
2021/06/01 04:36:20;;;;;;;7.82;3.78;;;;;;;;;;4434663;32;20254;-68
2021/06/01 04:38:45;;;;;;;5.75;3.37;;;;;;;;;;4421624;32;20260;-68
2021/06/01 04:41:10;;;;;;;6.07;3.35;;;;;;;;;;4433554;32;20619;-70
2021/06/01 04:43:36;;;;;;;7.70;3.75;;;;;;;;;;4439396;32;20256;-68
2021/06/01 04:46:01;;;;;;;8.50;3.95;;;;;;;;;;4449698;32;20240;-68
2021/06/01 04:48:26;;;;;;;6.70;3.58;;;;;;;;;;4449010;32;20175;-68
2021/06/01 04:50:52;;;;;;;6.70;3.70;;;;;;;;;;4450836;32;20134;-68
2021/06/01 04:53:17;;;;;;;5.65;3.55;;;;;;;;;;4448836;32;20440;-68
2021/06/01 04:55:42;;;;;;;7.28;3.95;;;;;;;;;;4448628;32;20220;-68
2021/06/01 04:58:07;;;;;;;5.90;3.58;;;;;;;;;;4450537;32;20144;-70
2021/06/01 05:00:33;;;;;;;6.90;4.00;;;;;;;;;;4449108;32;20530;-68
2021/06/01 05:02:58;;;;;;;5.70;3.55;;;;;;;;;;4451216;32;20507;-68
2021/06/01 05:05:23;;;;;;;6.30;4.50;;;;;;;;;;4436649;32;20180;-69
2021/06/01 05:07:48;;;;;;;8.25;4.12;;;;;;;;;;4451781;32;20132;-69
2021/06/01 05:10:13;;;;;;;7.82;3.75;;;;;;;;;;4450693;32;20225;-69
2021/06/01 05:12:39;;;;;;;7.28;3.55;;;;;;;;;;4450208;32;20133;-68
2021/06/01 05:15:05;;;;;;;6.57;3.95;;;;;;;;;;4434410;32;20160;-69
2021/06/01 05:17:30;;;;;;;7.47;4.95;;;;;;;;;;4449769;32;20157;-68
2021/06/01 05:19:55;;;;;;;8.00;4.50;;;;;;;;;;4448765;32;20156;-69
2021/06/01 05:22:20;;;;;;;9.52;4.40;;;;;;;;;;4449934;32;20329;-68
2021/06/01 05:24:46;;;;;;;26.67;5.30;;;;;;;;;;4433931;32;20169;-68
2021/06/01 05:27:12;;;;;;;11.85;5.37;;;;;;;;;;4435444;32;20208;-68
2021/06/01 05:29:39;;;;;;;9.90;4.40;;;;;;;;;;4449362;32;20461;-69
2021/06/01 05:34:57;;;;;;;9.23;4.10;;;;;;;;;;4449601;32;20155;-69
2021/06/01 05:37:25;;;;;;;10.20;4.18;;;;;;;;;;4450315;32;20137;-69
2021/06/01 05:39:50;;;;;;;10.23;4.57;;;;;;;;;;4449549;32;20151;-69
2021/06/01 05:42:16;;;;;;;9.02;5.18;;;;;;;;;;4450903;32;20138;-68
2021/06/01 05:44:41;;;;;;;8.70;4.87;;;;;;;;;;4450074;32;20280;-68
2021/06/01 05:47:06;;;;;;;8.68;4.10;;;;;;;;;;4448053;32;20656;-68
2021/06/01 05:49:31;;;;;;;15.85;4.97;;;;;;;;;;4435283;32;20238;-69
2021/06/01 05:51:56;;;;;;;9.07;4.72;;;;;;;;;;4418084;32;20619;-67
2021/06/01 05:54:21;;;;;;;13.82;5.07;;;;;;;;;;4417255;32;20233;-68
2021/06/01 05:56:47;;;;;;;11.23;5.07;;;;;;;;;;4417827;32;20237;-68
2021/06/01 05:59:12;;;;;;;8.25;5.15;;;;;;;;;;4419060;32;20241;-67
2021/06/01 06:01:37;;;;;;;9.80;5.62;;;;;;;;;;4404234;32;20371;-67
2021/06/01 06:04:02;;;;;;;12.70;5.60;;;;;;;;;;4419048;32;20229;-68
2021/06/01 06:06:27;;;;;;;11.02;5.00;;;;;;;;;;4420996;32;20264;-68
2021/06/01 06:08:52;;;;;;;8.27;4.90;;;;;;;;;;4405710;32;20177;-69
2021/06/01 06:11:18;;;;;;;9.60;5.18;;;;;;;;;;4419929;32;20621;-68
2021/06/01 06:13:43;;;;;;;10.35;4.97;;;;;;;;;;4420859;32;20281;-67
2021/06/01 06:16:08;;;;;;;10.18;5.20;;;;;;;;;;4419480;32;20145;-67
2021/06/01 06:18:41;;;;;;;10.90;5.03;;;;;;;;;;4432167;32;20165;-68
2021/06/01 06:21:06;;;;;;;12.60;5.60;;;;;;;;;;4435733;32;20141;-67
2021/06/01 06:23:33;;;;;;;11.40;5.72;;;;;;;;;;4436151;32;20222;-68
2021/06/01 06:25:59;;;;;;;10.10;5.40;;;;;;;;;;4421816;32;20192;-68
2021/06/01 06:28:24;;;;;;;8.43;5.30;;;;;;;;;;4435017;32;20149;-67
2021/06/01 06:30:49;;;;;;;7.73;5.60;;;;;;;;;;4423139;32;20638;-69
2021/06/01 06:33:14;;;;;;;12.40;5.75;;;;;;;;;;4437293;32;20229;-67
2021/06/01 06:35:39;;;;;;;12.18;5.80;;;;;;;;;;4422207;32;20233;-67
2021/06/01 06:38:05;;;;;;;12.07;5.93;;;;;;;;;;4436025;32;20211;-68
2021/06/01 06:40:30;;;;;;;9.25;5.93;;;;;;;;;;4435789;32;20137;-67
2021/06/01 06:42:55;;;;;;;8.82;4.85;;;;;;;;;;4435143;32;20160;-68
2021/06/01 06:45:23;;;;;;;19.75;5.85;;;;;;;;;;4434953;32;20505;-68
2021/06/01 06:50:14;;;;;;;12.43;5.90;;;;;;;;;;4437514;32;20195;-67
2021/06/01 06:52:40;;;;;;;10.38;5.80;;;;;;;;;;4435995;32;20240;-68
2021/06/01 06:55:08;;;;;;;8.77;5.03;;;;;;;;;;4421720;32;20582;-69
2021/06/01 06:57:33;;;;;;;8.73;5.70;;;;;;;;;;4435089;32;20146;-68
2021/06/01 06:59:58;;;;;;;8.45;5.37;;;;;;;;;;4426345;32;20176;-69
2021/06/01 07:02:24;;;;;;;8.85;5.47;;;;;;;;;;4418471;32;20172;-67
2021/06/01 07:04:49;;;;;;;10.57;6.00;;;;;;;;;;4410617;32;20648;-68
2021/06/01 07:07:14;;;;;;;9.32;5.37;;;;;;;;;;4417529;32;20157;-68
2021/06/01 07:09:40;;;;;;;11.63;6.37;;;;;;;;;;4421191;32;20245;-67
2021/06/01 07:12:06;;;;;;;24.17;6.68;;;;;;;;;;4423492;32;20539;-68
2021/06/01 07:14:32;;;;;;;15.18;5.90;;;;;;;;;;4428655;32;20348;-67
2021/06/01 07:16:57;;;;;;;12.60;6.05;;;;;;;;;;4419239;32;20145;-68
2021/06/01 07:19:23;;;;;;;14.13;5.82;;;;;;;;;;4425182;32;20202;-69
2021/06/01 07:21:48;;;;;;;12.00;6.05;;;;;;;;;;4422987;32;20172;-68
2021/06/01 07:24:13;;;;;;;24.20;7.00;;;;;;;;;;4421083;32;20204;-68
2021/06/01 07:26:39;;;;;;;8.25;5.75;;;;;;;;;;4431725;32;20259;-68
2021/06/01 07:29:04;;;;;;;8.23;5.28;;;;;;;;;;4431264;32;20168;-68
2021/06/01 07:31:29;;;;;;;9.23;5.75;;;;;;;;;;4435977;32;20149;-68
2021/06/01 07:33:55;;;;;;;8.65;5.75;;;;;;;;;;4429759;32;20384;-70
2021/06/01 07:36:20;;;;;;;10.77;6.07;;;;;;;;;;4432999;32;20153;-68
2021/06/01 07:38:45;;;;;;;17.77;5.73;;;;;;;;;;4430701;32;20297;-67
2021/06/01 07:41:10;;;;;;;11.23;5.57;;;;;;;;;;4431537;32;20233;-68
2021/06/01 07:43:35;;;;;;;11.52;5.40;;;;;;;;;;4430696;32;20227;-67
2021/06/01 07:46:04;;;;;;;9.88;6.20;;;;;;;;;;4429605;32;20137;-68
2021/06/01 07:48:32;;;;;;;8.60;5.97;;;;;;;;;;4431558;32;20146;-70
2021/06/01 07:50:57;;;;;;;13.00;6.15;;;;;;;;;;4441121;32;20157;-69
2021/06/01 07:53:22;;;;;;;9.23;5.00;;;;;;;;;;4447856;32;20133;-67
2021/06/01 07:55:47;;;;;;;9.60;6.12;;;;;;;;;;4440230;32;20165;-67
2021/06/01 07:58:12;;;;;;;7.80;4.63;;;;;;;;;;4417421;32;20291;-68
2021/06/01 08:00:38;;;;;;;37.90;8.35;;;;;;;;;;4417716;32;20693;-71
2021/06/01 08:03:04;;;;;;;11.90;6.05;;;;;;;;;;4417728;32;20252;-71
2021/06/01 08:05:29;;;;;;;9.23;5.62;;;;;;;;;;4420625;32;20196;-71
2021/06/01 08:07:54;;;;;;;6.28;5.03;;;;;;;;;;4416804;32;20596;-71
2021/06/01 08:10:21;;;;;;;8.73;6.50;;;;;;;;;;4415264;32;20216;-71
2021/06/01 08:12:48;;;;;;;12.75;6.12;;;;;;;;;;4415796;32;20284;-71
2021/06/01 08:15:15;;;;;;;10.15;5.47;;;;;;;;;;4416891;32;20142;-71
2021/06/01 08:17:40;;;;;;;14.05;5.62;;;;;;;;;;4429938;32;20149;-72
2021/06/01 08:20:12;;;;;;;9.40;5.78;;;;;;;;;;4418555;32;20192;-71
2021/06/01 08:22:38;;;;;;;12.48;6.53;;;;;;;;;;4431113;32;20134;-71
2021/06/01 08:25:03;;;;;;;12.60;6.20;;;;;;;;;;4418950;32;20215;-71
2021/06/01 08:27:30;;;;;;;7.32;5.22;;;;;;;;;;4418527;32;20650;-71
2021/06/01 08:29:56;;;;;;;8.20;5.60;;;;;;;;;;4415627;32;20175;-71
2021/06/01 08:32:21;;;;;;;7.35;4.57;;;;;;;;;;4402606;32;20254;-71
2021/06/01 08:34:47;;;;;;;12.07;6.30;;;;;;;;;;4416378;32;20146;-72
2021/06/01 08:37:12;;;;;;;14.95;6.25;;;;;;;;;;4415436;32;20261;-72
2021/06/01 08:39:37;;;;;;;9.32;5.60;;;;;;;;;;4422491;32;20364;-71
2021/06/01 08:42:02;;;;;;;8.90;4.70;;;;;;;;;;4418077;32;20292;-71
2021/06/01 08:44:27;;;;;;;9.35;4.80;;;;;;;;;;4420264;32;20229;-72
2021/06/01 08:46:54;;;;;;;8.40;4.70;;;;;;;;;;4420063;32;20149;-71
2021/06/01 08:49:19;;;;;;;17.92;5.37;;;;;;;;;;4414036;32;20142;-72
2021/06/01 08:51:45;;;;;;;9.25;4.18;;;;;;;;;;4400367;32;20218;-71
2021/06/01 08:54:11;;;;;;;13.57;4.93;;;;;;;;;;4416563;32;20570;-70
2021/06/01 08:56:36;;;;;;;8.20;4.93;;;;;;;;;;4414025;32;20207;-72
2021/06/01 08:59:01;;;;;;;6.78;4.50;;;;;;;;;;4422488;32;20184;-72
2021/06/01 09:01:27;;;;;;;9.80;4.80;;;;;;;;;;4430311;32;20153;-71
2021/06/01 09:03:54;;;;;;;5.65;4.00;;;;;;;;;;4430720;32;20288;-72
2021/06/01 09:06:29;;;;;;;6.65;4.37;;;;;;;;;;4429482;32;20179;-71
2021/06/01 09:14:29;;;;;;;6.93;4.40;;;;;;;;;;4428086;32;20141;-70
2021/06/01 09:22:32;;;;;;;5.35;3.58;;;;;;;;;;4418477;32;20569;-70
2021/06/01 09:25:18;;;;;;;6.85;3.90;;;;;;;;;;4421486;32;20150;-71
2021/06/01 09:27:46;;;;;;;9.45;3.67;;;;;;;;;;4403229;32;20166;-71
2021/06/01 09:30:30;;;;;;;11.52;3.08;;;;;;;;;;4426458;32;20216;-71
2021/06/01 09:32:55;;;;;;;8.07;2.95;;;;;;;;;;4405343;32;20191;-71
2021/06/01 09:35:21;;;;;;;8.27;3.33;;;;;;;;;;4432309;32;20483;-71
2021/06/01 09:37:46;;;;;;;52.25;5.37;;;;;;;;;;4446147;32;20296;-72
2021/06/01 09:40:13;;;;;;;13.18;3.72;;;;;;;;;;4449058;32;20156;-71
2021/06/01 09:42:45;;;;;;;6.87;3.00;;;;;;;;;;4420651;32;20214;-70
2021/06/01 09:45:18;;;;;;;29.70;5.12;;;;;;;;;;4418596;32;20181;-71
2021/06/01 09:47:54;;;;;;;56.78;5.20;;;;;;;;;;4419264;32;20156;-72
2021/06/01 09:50:39;;;;;;;28.95;3.90;;;;;;;;;;4419326;32;20531;-72
2021/06/01 09:53:20;;;;;;;44.55;5.80;;;;;;;;;;4403786;32;20166;-70
2021/06/01 09:55:49;;;;;;;27.92;4.37;;;;;;;;;;4425826;32;20531;-72
2021/06/01 09:58:16;;;;;;;10.05;3.45;;;;;;;;;;4422924;32;20528;-71
2021/06/01 10:00:43;;;;;;;15.43;3.47;;;;;;;;;;4426458;32;20207;-71
2021/06/01 10:03:20;;;;;;;38.50;4.87;;;;;;;;;;4419068;32;20250;-71
2021/06/01 10:05:48;;;;;;;26.80;3.97;;;;;;;;;;4432433;32;20172;-73
2021/06/01 10:08:17;;;;;;;17.67;4.12;;;;;;;;;;4431859;32;20168;-71
2021/06/01 10:10:50;;;;;;;21.17;3.70;;;;;;;;;;4418164;32;20496;-71
2021/06/01 10:13:16;;;;;;;5.10;3.05;;;;;;;;;;4418165;32;20174;-72
2021/06/01 10:15:41;;;;;;;21.17;3.47;;;;;;;;;;4432409;32;20208;-72
2021/06/01 10:18:09;;;;;;;30.12;4.12;;;;;;;;;;4431455;32;20176;-71
2021/06/01 10:20:35;;;;;;;10.13;3.05;;;;;;;;;;4414563;32;20166;-71
2021/06/01 10:23:01;;;;;;;23.55;3.85;;;;;;;;;;4416133;32;20213;-71
2021/06/01 10:25:26;;;;;;;4.22;2.80;;;;;;;;;;4418677;32;20600;-71
2021/06/01 10:27:52;;;;;;;4.35;3.00;;;;;;;;;;4417725;32;20223;-71
2021/06/01 10:30:18;;;;;;;6.75;2.90;;;;;;;;;;4425716;32;20208;-71
2021/06/01 10:32:51;;;;;;;3.97;2.75;;;;;;;;;;4417689;32;20169;-72
2021/06/01 10:35:17;;;;;;;4.07;2.53;;;;;;;;;;4431567;32;20238;-71
2021/06/01 10:51:57;;;;;;;7.37;2.58;;;;;;;;;;4417450;32;20181;-71
2021/06/01 10:54:46;;;;;;;7.68;2.45;;;;;;;;;;4417423;32;20244;-71
2021/06/01 10:57:13;;;;;;;4.10;2.30;;;;;;;;;;4418298;32;20150;-71
2021/06/01 10:59:49;;;;;;;3.83;2.28;;;;;;;;;;4417876;32;20508;-70
2021/06/01 11:02:15;;;;;;;3.85;2.17;;;;;;;;;;4419358;32;20213;-71
2021/06/01 11:04:59;;;;;;;4.22;2.30;;;;;;;;;;4420782;32;20150;-72
2021/06/01 11:07:42;;;;;;;3.65;1.90;;;;;;;;;;4412667;32;20304;-72
2021/06/01 11:10:07;;;;;;;20.33;2.92;;;;;;;;;;4417048;32;20207;-71
2021/06/01 11:12:35;;;;;;;29.17;3.95;;;;;;;;;;4432273;32;20519;-70
2021/06/01 11:15:18;;;;;;;3.58;2.20;;;;;;;;;;4402130;32;20166;-71
2021/06/01 11:17:43;;;;;;;3.37;2.65;;;;;;;;;;4417029;32;20188;-72
2021/06/01 11:20:37;;;;;;;4.55;2.28;;;;;;;;;;4426956;32;20209;-69
2021/06/01 11:23:14;;;;;;;3.67;2.33;;;;;;;;;;4430910;32;20374;-71
2021/06/01 11:33:52;;;;;;;9.73;2.40;;;;;;;;;;4418314;32;20234;-71
2021/06/01 11:36:19;;;;;;;5.37;1.80;;;;;;;;;;4423327;32;20343;-71
2021/06/01 11:42:46;;;;;;;6.18;2.40;;;;;;;;;;4414906;32;20524;-70
2021/06/01 11:44:14;;;;;;;6.32;2.70;;;;;;;;;;4420124;32;20210;-72
2021/06/01 11:47:09;;;;;;;5.85;2.40;;;;;;;;;;4419052;32;20169;-72
2021/06/01 11:52:11;;;;;;;6.32;2.40;;;;;;;;;;4416606;32;20152;-72
2021/06/01 11:54:37;;;;;;;6.67;2.80;;;;;;;;;;4412563;32;20169;-70
2021/06/01 11:57:10;;;;;;;4.12;2.65;;;;;;;;;;4431040;32;20307;-72
2021/06/01 12:18:09;;;;;;;5.10;2.53;;;;;;;;;;4421025;32;20631;-72
2021/06/01 12:20:35;;;;;;;3.72;2.60;;;;;;;;;;4421722;32;20180;-72
2021/06/01 12:23:00;;;;;;;4.65;2.35;;;;;;;;;;4414562;32;20139;-73
2021/06/01 12:25:25;;;;;;;6.40;2.90;;;;;;;;;;4409117;32;20192;-71
2021/06/01 12:28:09;;;;;;;2.42;1.80;;;;;;;;;;4411350;32;20295;-71
2021/06/01 12:30:57;;;;;;;5.72;2.30;;;;;;;;;;4410057;32;20193;-72
2021/06/01 12:33:24;;;;;;;4.18;2.15;;;;;;;;;;4421936;32;20277;-72
2021/06/01 12:44:15;;;;;;;5.75;2.08;;;;;;;;;;4414719;32;20153;-72
2021/06/01 12:46:59;;;;;;;8.50;2.20;;;;;;;;;;4416282;32;20168;-72
2021/06/01 13:09:00;;;;;;;3.85;2.17;;;;;;;;;;4446976;32;20248;-71
2021/06/01 13:19:37;;;;;;;3.50;2.47;;;;;;;;;;4431432;32;20257;-71
2021/06/01 13:22:35;;;;;;;7.07;2.80;;;;;;;;;;4448427;32;20173;-72
2021/06/01 13:46:39;;;;;;;4.18;1.80;;;;;;;;;;4415655;32;20168;-71
2021/06/01 13:49:15;;;;;;;4.90;1.98;;;;;;;;;;4401301;32;20911;-72
2021/06/01 13:56:55;;;;;;;3.37;2.67;;;;;;;;;;4416764;32;20942;-72
2021/06/01 13:59:42;;;;;;;5.72;2.75;;;;;;;;;;4414843;32;20491;-71
2021/06/01 14:11:01;;;;;;;7.45;3.17;;;;;;;;;;4367196;32;20309;-71
2021/06/01 14:21:35;;;;;;;6.10;2.90;;;;;;;;;;4415160;32;20165;-72
2021/06/01 15:32:32;;;;;;;6.10;3.00;;;;;;;;;;4429756;32;20176;-72
2021/06/01 15:41:16;;;;;;;5.65;3.80;;;;;;;;;;4430814;32;20133;-74
2021/06/01 15:48:56;;;;;;;5.32;3.25;;;;;;;;;;4434465;32;20607;-71
2021/06/01 15:54:50;;;;;;;5.80;3.47;;;;;;;;;;4434370;32;20174;-73
2021/06/01 16:11:50;;;;;;;7.47;3.05;;;;;;;;;;4417284;32;20169;-72
2021/06/01 16:30:27;;;;;;;5.10;2.65;;;;;;;;;;4426608;32;20221;-72
2021/06/01 16:33:12;;;;;;;4.22;2.67;;;;;;;;;;4432887;32;20174;-72
2021/06/01 16:43:56;;;;;;;4.28;3.03;;;;;;;;;;4420168;32;20314;-72
2021/06/01 17:05:40;;;;;;;5.55;3.12;;;;;;;;;;4419262;32;20279;-72
2021/06/01 17:11:17;;;;;;;6.70;2.87;;;;;;;;;;4416270;32;20195;-73
2021/06/01 17:13:42;;;;;;;6.47;2.95;;;;;;;;;;4419426;32;20133;-73
2021/06/01 17:16:14;;;;;;;4.65;3.05;;;;;;;;;;4404129;32;20539;-73
2021/06/01 17:24:14;;;;;;;8.57;3.15;;;;;;;;;;4420073;32;20183;-72
2021/06/01 17:35:14;;;;;;;6.70;2.37;;;;;;;;;;4419947;32;20150;-75
2021/06/01 17:37:32;;;;;;;7.00;2.70;;;;;;;;;;4417068;32;20392;-75
2021/06/01 17:39:59;;;;;;;4.40;2.67;;;;;;;;;;4433263;32;20507;-74
2021/06/01 17:42:28;;;;;;;5.22;4.72;;;;;;;;;;4424219;32;20223;-75
2021/06/01 17:44:57;;;;;;;4.82;2.45;;;;;;;;;;4402971;32;20220;-75
2021/06/01 17:47:25;;;;;;;4.15;2.40;;;;;;;;;;4419010;32;20164;-75
2021/06/01 17:49:51;;;;;;;6.43;2.30;;;;;;;;;;4418167;32;20482;-75
2021/06/01 17:52:24;;;;;;;3.10;2.30;;;;;;;;;;4418961;32;20160;-75
2021/06/01 17:54:51;;;;;;;4.22;2.50;;;;;;;;;;4418638;32;20133;-75
2021/06/01 17:57:16;;;;;;;4.43;2.35;;;;;;;;;;4405388;32;20162;-74
2021/06/01 17:59:43;;;;;;;5.12;2.25;;;;;;;;;;4417818;32;20133;-75
2021/06/01 18:02:10;;;;;;;5.30;2.37;;;;;;;;;;4406425;32;20157;-75
2021/06/01 18:04:37;;;;;;;3.53;2.75;;;;;;;;;;4407619;32;20169;-73
2021/06/01 18:07:06;;;;;;;2.87;2.30;;;;;;;;;;4406430;32;20174;-74
2021/06/01 19:06:44;;;;;;;4.75;2.60;;;;;;;;;;4420623;32;20214;-75
2021/06/01 19:21:28;;;;;;;2.53;2.20;;;;;;;;;;4436224;32;20167;-73
2021/06/01 19:25:09;;;;;;;3.83;2.62;;;;;;;;;;4422940;32;20161;-72
2021/06/01 19:28:14;;;;;;;4.22;2.50;;;;;;;;;;4405338;32;20180;-73
2021/06/01 19:49:56;;;;;;;5.00;2.78;;;;;;;;;;4420405;32;20140;-72
2021/06/01 19:52:21;;;;;;;6.93;3.33;;;;;;;;;;4404509;32;20153;-72
2021/06/01 19:54:48;;;;;;;3.83;2.70;;;;;;;;;;4411356;32;20237;-71
2021/06/01 19:57:14;;;;;;;5.40;2.90;;;;;;;;;;4433564;32;20261;-71
2021/06/01 19:59:39;;;;;;;6.97;2.90;;;;;;;;;;4434987;32;20172;-71
2021/06/01 20:02:05;;;;;;;6.22;2.80;;;;;;;;;;4421600;32;20169;-71
2021/06/01 20:04:31;;;;;;;4.50;2.72;;;;;;;;;;4434345;32;20449;-71
2021/06/01 20:06:56;;;;;;;8.50;2.50;;;;;;;;;;4436031;32;20213;-73
2021/06/01 20:09:21;;;;;;;3.72;2.53;;;;;;;;;;4434035;32;20153;-71
2021/06/01 20:11:46;;;;;;;3.22;2.30;;;;;;;;;;4432774;32;20180;-71
2021/06/01 20:14:12;;;;;;;3.45;2.22;;;;;;;;;;4413539;32;20284;-71
2021/06/01 20:16:39;;;;;;;3.20;2.10;;;;;;;;;;4416567;32;20641;-72
2021/06/01 20:19:05;;;;;;;4.50;2.50;;;;;;;;;;4419937;32;20265;-71
2021/06/01 20:21:31;;;;;;;3.60;2.78;;;;;;;;;;4433964;32;20190;-72
2021/06/01 20:23:57;;;;;;;5.93;2.83;;;;;;;;;;4435203;32;20138;-71
2021/06/01 20:26:22;;;;;;;7.85;3.50;;;;;;;;;;4421370;32;20181;-72
2021/06/01 20:28:51;;;;;;;5.47;3.80;;;;;;;;;;4433965;32;20286;-73
2021/06/01 20:31:18;;;;;;;8.80;3.90;;;;;;;;;;4435075;32;20464;-71
2021/06/01 20:33:44;;;;;;;9.77;4.37;;;;;;;;;;4435112;32;20568;-71
2021/06/01 20:36:10;;;;;;;5.97;3.40;;;;;;;;;;4434911;32;20149;-72
2021/06/01 20:38:36;;;;;;;5.57;3.47;;;;;;;;;;4420222;32;20215;-73
2021/06/01 20:41:02;;;;;;;11.27;7.93;;;;;;;;;;4434058;32;20133;-73
2021/06/01 20:43:28;;;;;;;6.35;3.45;;;;;;;;;;4434039;32;20134;-73
2021/06/01 20:45:53;;;;;;;5.43;3.42;;;;;;;;;;4411698;32;20265;-72
2021/06/01 20:48:18;;;;;;;6.85;3.47;;;;;;;;;;4419705;32;20205;-72
2021/06/01 20:50:44;;;;;;;6.00;3.00;;;;;;;;;;4420182;32;20141;-72
2021/06/01 20:53:11;;;;;;;5.55;3.00;;;;;;;;;;4418752;32;20199;-73
2021/06/01 20:55:37;;;;;;;7.60;3.45;;;;;;;;;;4418935;32;20133;-73
2021/06/01 20:58:04;;;;;;;4.35;3.12;;;;;;;;;;4418237;32;20205;-73
2021/06/01 21:00:36;;;;;;;4.57;3.40;;;;;;;;;;4418933;32;20129;-72
2021/06/01 21:03:02;;;;;;;3.78;3.17;;;;;;;;;;4417922;32;20130;-73
2021/06/01 21:05:30;;;;;;;4.12;2.97;;;;;;;;;;4417996;32;20134;-72
2021/06/01 21:07:56;;;;;;;4.05;3.05;;;;;;;;;;4404551;32;20188;-72
2021/06/01 21:10:22;;;;;;;4.75;2.78;;;;;;;;;;4418316;32;20153;-72
2021/06/01 21:12:47;;;;;;;3.35;2.72;;;;;;;;;;4419682;32;20165;-73
2021/06/01 21:15:14;;;;;;;4.32;2.53;;;;;;;;;;4417891;32;20196;-73
2021/06/01 21:17:40;;;;;;;4.85;2.90;;;;;;;;;;4419503;32;20141;-73